Time;durP1;ratioP1;P1;durP2;ratioP2;P2;SDS_P1;SDS_P2;PMS_P1;PMS_P2;Temp;Humidity;BMP_temperature;BMP_pressure;BME280_temperature;BME280_humidity;BME280_pressure;Samples;Min_cycle;Max_cycle;Signal;HPM_P1;HPM_P2
2021/11/16 00:00:53;;;;;;;17.93;11.20;;;7.40;90.90;;;;;;4996822;28;20777;-77
2021/11/16 00:03:19;;;;;;;22.73;11.00;;;7.30;91.00;;;;;;4999675;28;20418;-77
2021/11/16 00:05:45;;;;;;;15.73;9.67;;;7.30;91.00;;;;;;4996358;28;20534;-76
2021/11/16 00:08:11;;;;;;;16.83;10.63;;;7.30;91.10;;;;;;4985624;28;20190;-77
2021/11/16 00:10:38;;;;;;;19.67;11.83;;;7.20;91.10;;;;;;4980051;28;20543;-77
2021/11/16 00:13:10;;;;;;;17.67;10.97;;;7.20;91.30;;;;;;4998176;28;20402;-77
2021/11/16 00:15:44;;;;;;;20.03;11.40;;;7.20;91.30;;;;;;4998137;28;20505;-75
2021/11/16 00:18:11;;;;;;;19.93;10.70;;;7.20;91.70;;;;;;4994671;28;20472;-76
2021/11/16 00:20:42;;;;;;;19.47;12.67;;;7.20;91.30;;;;;;5000682;28;20403;-76
2021/11/16 00:23:16;;;;;;;22.33;11.50;;;7.20;91.40;;;;;;5002490;28;20423;-78
2021/11/16 00:25:42;;;;;;;18.77;12.80;;;7.20;91.30;;;;;;4999380;28;20435;-77
2021/11/16 00:28:08;;;;;;;23.97;10.63;;;7.20;91.30;;;;;;4998217;28;21171;-77
2021/11/16 00:30:33;;;;;;;19.63;12.37;;;7.20;91.30;;;;;;4977436;28;20578;-76
2021/11/16 00:32:59;;;;;;;18.87;11.63;;;7.20;91.40;;;;;;4995697;28;20223;-75
2021/11/16 00:35:25;;;;;;;21.93;11.97;;;7.20;91.50;;;;;;4998466;28;20210;-77
2021/11/16 00:37:51;;;;;;;19.20;12.10;;;7.20;91.40;;;;;;5000491;28;20164;-76
2021/11/16 00:40:19;;;;;;;19.13;11.50;;;7.20;91.50;;;;;;4998712;28;20465;-77
2021/11/16 00:42:48;;;;;;;23.10;12.67;;;7.30;91.50;;;;;;4997642;28;20664;-76
2021/11/16 00:45:16;;;;;;;18.87;11.20;;;7.20;91.40;;;;;;4996820;28;20438;-74
2021/11/16 00:47:42;;;;;;;21.40;13.53;;;7.20;91.50;;;;;;5002271;28;20415;-75
2021/11/16 00:50:10;;;;;;;21.57;11.73;;;7.20;91.60;;;;;;5000338;28;20427;-76
2021/11/16 00:52:36;;;;;;;24.93;12.40;;;7.30;91.60;;;;;;4994557;28;20827;-76
2021/11/16 00:55:04;;;;;;;22.10;12.27;;;7.30;91.60;;;;;;4994252;28;20474;-77
2021/11/16 00:57:29;;;;;;;20.70;11.53;;;7.30;91.60;;;;;;4993766;28;20554;-75
2021/11/16 00:59:55;;;;;;;20.83;11.90;;;7.40;91.50;;;;;;4994900;28;20446;-76
2021/11/16 01:02:21;;;;;;;22.77;12.53;;;7.40;91.50;;;;;;4993255;28;20591;-77
2021/11/16 01:04:51;;;;;;;19.93;10.60;;;7.30;91.40;;;;;;4998541;28;20194;-78
2021/11/16 01:07:18;;;;;;;20.33;11.53;;;7.30;91.30;;;;;;4998132;28;20160;-77
2021/11/16 01:09:45;;;;;;;17.03;10.07;;;7.30;91.40;;;;;;4997237;28;20426;-78
2021/11/16 01:12:12;;;;;;;21.87;12.60;;;7.30;91.40;;;;;;4998588;28;20979;-77
2021/11/16 01:14:39;;;;;;;24.10;13.20;;;7.30;91.40;;;;;;4998225;28;20759;-76
2021/11/16 01:17:05;;;;;;;18.77;10.70;;;7.30;91.30;;;;;;5000709;28;20975;-77
2021/11/16 01:19:31;;;;;;;22.47;11.73;;;7.30;91.30;;;;;;5002028;28;20486;-77
2021/11/16 01:21:57;;;;;;;22.10;11.20;;;7.20;91.30;;;;;;5002270;28;20877;-77
2021/11/16 01:24:23;;;;;;;16.30;10.57;;;7.20;91.40;;;;;;4999562;28;20413;-77
2021/11/16 01:26:50;;;;;;;20.53;11.00;;;7.10;91.50;;;;;;4996066;28;20530;-76
2021/11/16 01:29:19;;;;;;;19.93;9.83;;;7.10;91.60;;;;;;4993967;28;20857;-76
2021/11/16 01:31:45;;;;;;;16.40;9.97;;;7.20;91.70;;;;;;5000269;28;20528;-77
2021/11/16 01:34:11;;;;;;;16.57;10.30;;;7.10;91.50;;;;;;4992689;28;20449;-76
2021/11/16 01:36:38;;;;;;;18.90;11.43;;;7.10;91.50;;;;;;4997256;28;20512;-77
2021/11/16 01:39:04;;;;;;;18.93;10.73;;;7.10;91.50;;;;;;4998264;28;20408;-77
2021/11/16 01:41:31;;;;;;;21.57;12.80;;;7.10;91.60;;;;;;4994004;28;20419;-76
2021/11/16 01:44:00;;;;;;;17.80;10.43;;;7.10;91.70;;;;;;4995288;28;20765;-77
2021/11/16 01:46:27;;;;;;;19.70;10.87;;;7.10;91.70;;;;;;4994199;28;20443;-76
2021/11/16 01:48:55;;;;;;;18.00;11.90;;;7.10;91.80;;;;;;4998942;28;20407;-77
2021/11/16 01:51:23;;;;;;;20.27;11.40;;;7.10;91.80;;;;;;4996686;28;20502;-76
2021/11/16 01:53:52;;;;;;;17.17;11.83;;;7.10;91.90;;;;;;4996666;28;20441;-76
2021/11/16 01:56:18;;;;;;;22.70;11.07;;;7.20;92.00;;;;;;4995001;28;20467;-76
2021/11/16 01:58:44;;;;;;;18.87;12.83;;;7.20;91.80;;;;;;4996698;28;20469;-76
2021/11/16 02:01:10;;;;;;;19.70;11.63;;;7.20;91.80;;;;;;4995166;28;20423;-75
2021/11/16 02:03:36;;;;;;;15.80;9.47;;;7.10;91.70;;;;;;4997896;28;20212;-75
2021/11/16 02:06:17;;;;;;;21.07;11.40;;;7.20;91.80;;;;;;5014128;28;20736;-75
2021/11/16 02:08:43;;;;;;;18.83;10.10;;;7.10;91.70;;;;;;5030840;28;20417;-74
2021/11/16 02:11:08;;;;;;;18.43;10.50;;;7.10;91.70;;;;;;5014843;28;20434;-75
2021/11/16 02:13:34;;;;;;;19.77;11.70;;;7.00;91.70;;;;;;4995188;28;20191;-76
2021/11/16 02:16:01;;;;;;;18.47;11.00;;;7.00;91.70;;;;;;5005210;28;20570;-76
2021/11/16 02:18:27;;;;;;;19.43;10.70;;;7.00;91.80;;;;;;4995955;28;20686;-76
2021/11/16 02:20:53;;;;;;;21.40;11.30;;;7.00;92.00;;;;;;4992975;28;20868;-77
2021/11/16 02:23:19;;;;;;;18.13;10.20;;;7.00;92.00;;;;;;4994746;28;20218;-76
2021/11/16 02:25:48;;;;;;;19.27;11.50;;;7.00;92.00;;;;;;4994225;28;20633;-76
2021/11/16 02:28:18;;;;;;;20.10;11.90;;;7.10;91.90;;;;;;4993674;28;20429;-76
2021/11/16 02:30:45;;;;;;;12.80;8.73;;;7.10;91.80;;;;;;4993823;28;20423;-77
2021/11/16 02:33:13;;;;;;;17.70;10.37;;;7.10;91.80;;;;;;4994523;28;20488;-77
2021/11/16 02:35:39;;;;;;;18.57;9.93;;;7.10;91.70;;;;;;4994314;28;20751;-77
2021/11/16 02:38:04;;;;;;;14.37;8.37;;;7.10;91.60;;;;;;4993921;28;20433;-76
2021/11/16 02:40:31;;;;;;;19.00;9.03;;;7.10;91.60;;;;;;4993505;28;20176;-76
2021/11/16 02:42:57;;;;;;;14.13;7.93;;;7.10;91.60;;;;;;4994737;28;20227;-77
2021/11/16 02:45:24;;;;;;;15.53;8.53;;;7.00;91.20;;;;;;4996487;28;20434;-76
2021/11/16 02:47:50;;;;;;;13.97;7.57;;;7.00;91.30;;;;;;4995465;28;20427;-76
2021/11/16 02:50:17;;;;;;;13.90;7.67;;;7.00;91.40;;;;;;4993647;28;20485;-77
2021/11/16 02:52:43;;;;;;;12.43;7.10;;;7.00;91.40;;;;;;4999025;28;20407;-77
2021/11/16 02:55:10;;;;;;;13.33;8.30;;;7.10;91.30;;;;;;4980413;28;20557;-77
2021/11/16 02:57:37;;;;;;;13.73;6.47;;;7.10;91.20;;;;;;4995615;28;20526;-77
2021/11/16 03:00:15;;;;;;;15.70;8.40;;;7.10;91.10;;;;;;4996035;28;20418;-76
2021/11/16 03:02:45;;;;;;;15.43;8.10;;;7.10;90.90;;;;;;4994690;28;20920;-76
2021/11/16 03:05:12;;;;;;;15.27;8.77;;;7.10;90.80;;;;;;4998654;28;20449;-76
2021/11/16 03:07:48;;;;;;;12.00;7.53;;;7.10;90.90;;;;;;5000660;28;20415;-76
2021/11/16 03:10:16;;;;;;;13.43;7.57;;;7.10;90.80;;;;;;5001840;28;20741;-77
2021/11/16 03:12:42;;;;;;;15.30;8.27;;;7.10;90.70;;;;;;4999586;28;20422;-77
2021/11/16 03:15:09;;;;;;;17.13;8.70;;;7.10;90.70;;;;;;5005865;28;20482;-75
2021/11/16 03:17:35;;;;;;;12.97;7.67;;;7.10;90.60;;;;;;5014401;28;20411;-75
2021/11/16 03:20:06;;;;;;;13.43;7.60;;;7.10;90.60;;;;;;5013627;28;20419;-73
2021/11/16 03:22:56;;;;;;;14.47;7.93;;;7.10;90.60;;;;;;5006216;28;20180;-77
2021/11/16 03:25:26;;;;;;;17.67;8.00;;;7.00;90.50;;;;;;4994195;28;20435;-76
2021/11/16 03:27:57;;;;;;;13.53;8.33;;;7.00;90.60;;;;;;4997486;28;20399;-77
2021/11/16 03:30:24;;;;;;;14.07;7.70;;;7.10;90.60;;;;;;4994796;28;20425;-77
2021/11/16 03:32:49;;;;;;;14.97;7.50;;;7.10;90.40;;;;;;4998330;28;20415;-77
2021/11/16 03:35:16;;;;;;;13.13;8.13;;;7.10;90.50;;;;;;4994421;28;20490;-77
2021/11/16 03:37:48;;;;;;;14.53;8.30;;;7.10;90.50;;;;;;4995239;28;20411;-77
2021/11/16 03:40:15;;;;;;;17.13;9.80;;;7.10;90.60;;;;;;4995229;28;20403;-77
2021/11/16 03:42:45;;;;;;;18.90;9.80;;;7.10;90.70;;;;;;4993384;28;20419;-76
2021/11/16 03:45:11;;;;;;;18.93;10.50;;;7.10;90.60;;;;;;4993896;28;20470;-77
2021/11/16 03:47:37;;;;;;;15.33;9.20;;;7.10;90.50;;;;;;4993913;28;20472;-78
2021/11/16 03:50:06;;;;;;;15.40;8.20;;;7.20;90.60;;;;;;4994726;28;20426;-77
2021/11/16 03:52:35;;;;;;;15.77;9.27;;;7.10;90.60;;;;;;4994688;28;20426;-77
2021/11/16 03:55:02;;;;;;;17.00;9.83;;;7.10;91.00;;;;;;4994299;28;20469;-77
2021/11/16 03:57:29;;;;;;;20.83;10.90;;;7.10;90.70;;;;;;4997336;28;20407;-76
2021/11/16 03:59:55;;;;;;;17.00;9.50;;;7.10;90.80;;;;;;4996034;28;20402;-77
2021/11/16 04:02:20;;;;;;;14.10;8.97;;;7.00;90.80;;;;;;5001364;28;20505;-77
2021/11/16 04:04:49;;;;;;;18.00;9.67;;;7.10;90.90;;;;;;4997871;28;20179;-77
2021/11/16 04:07:15;;;;;;;18.10;10.50;;;7.10;90.90;;;;;;5003234;28;20223;-77
2021/11/16 04:09:42;;;;;;;22.27;9.87;;;7.10;90.90;;;;;;4998269;28;20520;-77
2021/11/16 04:12:09;;;;;;;22.17;12.30;;;7.00;90.90;;;;;;5001567;28;20168;-76
2021/11/16 04:14:34;;;;;;;21.67;9.77;;;7.00;91.00;;;;;;5004314;28;20422;-76
2021/11/16 04:17:00;;;;;;;22.67;11.70;;;7.00;91.10;;;;;;5000117;28;20458;-76
2021/11/16 04:19:26;;;;;;;20.73;11.63;;;7.00;91.20;;;;;;4997901;28;20170;-77
2021/11/16 04:21:52;;;;;;;18.90;9.80;;;7.00;91.20;;;;;;4997612;28;20239;-77
2021/11/16 04:24:17;;;;;;;21.57;11.17;;;7.00;91.30;;;;;;4997962;28;20631;-76
2021/11/16 04:26:43;;;;;;;22.73;10.73;;;7.00;91.30;;;;;;5004961;28;20198;-78
2021/11/16 04:29:09;;;;;;;21.43;9.97;;;7.00;91.30;;;;;;5001125;28;20274;-77
2021/11/16 04:31:34;;;;;;;17.23;10.03;;;7.00;91.30;;;;;;4997590;28;20207;-77
2021/11/16 04:34:05;;;;;;;15.67;9.20;;;7.00;91.30;;;;;;4997652;28;20629;-77
2021/11/16 04:36:33;;;;;;;20.57;10.57;;;7.10;91.30;;;;;;4996591;28;20208;-77
2021/11/16 04:38:59;;;;;;;17.33;10.17;;;7.00;91.20;;;;;;4998235;28;20745;-77
2021/11/16 04:41:25;;;;;;;18.70;10.23;;;7.10;91.20;;;;;;4997810;28;20417;-77
2021/11/16 04:43:50;;;;;;;16.03;9.60;;;7.00;91.20;;;;;;5003534;28;20403;-75
2021/11/16 04:46:20;;;;;;;19.53;7.97;;;7.10;91.20;;;;;;5002134;28;20515;-77
2021/11/16 04:49:53;;;;;;;14.83;8.30;;;7.10;91.10;;;;;;5017832;28;20174;-77
2021/11/16 04:52:00;;;;;;;17.10;8.70;;;7.10;91.00;;;;;;5010665;28;20425;-77
2021/11/16 05:02:32;;;;;;;13.77;8.40;;;7.00;90.70;;;;;;5008309;28;20792;-77
2021/11/16 05:02:43;;;;;;;19.93;9.63;;;7.00;90.80;;;;;;4998563;28;20418;-77
2021/11/16 05:05:12;;;;;;;14.13;7.73;;;7.10;90.80;;;;;;4993081;28;20450;-76
2021/11/16 05:07:51;;;;;;;18.10;8.87;;;7.10;90.70;;;;;;5023569;28;20481;-77
2021/11/16 05:10:17;;;;;;;16.17;8.67;;;7.00;90.70;;;;;;5001048;28;20426;-77
2021/11/16 05:12:42;;;;;;;14.60;8.97;;;7.00;90.70;;;;;;5021578;28;20485;-74
2021/11/16 05:15:15;;;;;;;19.40;10.10;;;7.00;90.80;;;;;;5031502;28;20179;-75
2021/11/16 05:17:42;;;;;;;14.07;7.90;;;7.10;90.80;;;;;;5018595;28;20172;-76
2021/11/16 05:20:08;;;;;;;17.40;8.77;;;7.10;90.70;;;;;;5016864;28;20847;-77
2021/11/16 05:22:34;;;;;;;14.17;8.00;;;7.10;90.70;;;;;;5017361;28;20406;-76
2021/11/16 05:25:01;;;;;;;15.50;8.10;;;7.10;90.40;;;;;;5018961;28;20426;-76
2021/11/16 05:27:27;;;;;;;14.67;7.87;;;7.10;90.40;;;;;;4996022;28;20439;-77
2021/11/16 05:29:52;;;;;;;14.70;8.23;;;7.10;90.40;;;;;;4991957;28;20404;-76
2021/11/16 05:32:18;;;;;;;11.87;7.27;;;7.20;90.40;;;;;;4991869;28;20416;-75
2021/11/16 05:34:44;;;;;;;12.07;7.37;;;7.10;90.30;;;;;;4991815;28;20164;-76
2021/11/16 05:37:10;;;;;;;13.40;7.03;;;7.10;90.30;;;;;;5019166;28;20391;-76
2021/11/16 05:39:36;;;;;;;14.60;7.70;;;7.10;90.40;;;;;;4995819;28;20546;-77
2021/11/16 05:42:03;;;;;;;14.53;8.03;;;7.10;90.40;;;;;;4976969;28;20167;-76
2021/11/16 05:44:31;;;;;;;16.27;7.53;;;7.10;90.40;;;;;;4981397;28;20763;-77
2021/11/16 05:46:57;;;;;;;16.03;9.07;;;7.20;90.50;;;;;;4976326;28;20515;-78
2021/11/16 05:49:25;;;;;;;17.30;9.57;;;7.20;90.60;;;;;;4979528;28;20432;-76
2021/11/16 05:51:51;;;;;;;15.20;9.63;;;7.20;90.60;;;;;;4989481;28;20479;-76
2021/11/16 05:54:18;;;;;;;19.93;9.80;;;7.20;90.60;;;;;;4976169;28;20458;-75
2021/11/16 05:56:45;;;;;;;19.23;9.83;;;7.20;90.60;;;;;;4988861;28;20693;-76
2021/11/16 05:59:11;;;;;;;18.40;9.27;;;7.30;90.70;;;;;;4976803;28;20415;-76
2021/11/16 06:01:37;;;;;;;22.43;10.40;;;7.30;90.70;;;;;;4994231;28;20510;-76
2021/11/16 06:04:03;;;;;;;23.03;10.60;;;7.30;90.80;;;;;;4994463;28;20179;-77
2021/11/16 06:06:31;;;;;;;18.23;10.00;;;7.20;90.80;;;;;;4993579;28;20498;-76
2021/11/16 06:08:59;;;;;;;18.97;9.00;;;7.30;91.00;;;;;;4989873;28;20964;-77
2021/11/16 06:11:26;;;;;;;17.33;9.00;;;7.30;91.10;;;;;;5021727;28;20437;-76
2021/11/16 06:13:55;;;;;;;23.90;10.27;;;7.20;91.00;;;;;;5023815;28;20411;-76
2021/11/16 06:16:21;;;;;;;15.10;9.17;;;7.20;91.10;;;;;;4995063;28;20473;-76
2021/11/16 06:18:49;;;;;;;14.50;6.83;;;7.20;91.10;;;;;;4994449;28;20462;-76
2021/11/16 06:21:15;;;;;;;15.63;8.40;;;7.20;91.10;;;;;;4996968;28;20430;-77
2021/11/16 06:23:40;;;;;;;14.57;7.63;;;7.20;91.20;;;;;;4996724;28;20457;-77
2021/11/16 06:26:07;;;;;;;21.67;10.20;;;7.20;91.20;;;;;;5008208;28;20200;-75
2021/11/16 06:28:33;;;;;;;18.93;10.77;;;7.20;91.30;;;;;;4976791;28;20422;-76
2021/11/16 06:30:59;;;;;;;20.17;11.40;;;7.10;91.40;;;;;;4991080;28;20533;-76
2021/11/16 06:33:25;;;;;;;20.50;11.57;;;7.10;91.50;;;;;;4988846;28;20172;-75
2021/11/16 06:35:52;;;;;;;23.10;12.70;;;7.10;91.70;;;;;;4979077;28;20463;-75
2021/11/16 06:38:18;;;;;;;14.77;8.87;;;7.10;91.70;;;;;;4989790;28;20429;-75
2021/11/16 06:40:47;;;;;;;15.30;9.53;;;7.10;91.70;;;;;;4990550;28;20427;-77
2021/11/16 06:43:24;;;;;;;20.67;9.50;;;7.10;91.70;;;;;;4994158;28;20770;-77
2021/11/16 06:45:52;;;;;;;19.60;10.20;;;7.10;91.70;;;;;;4981989;28;20479;-78
2021/11/16 06:48:18;;;;;;;24.03;12.03;;;7.10;91.70;;;;;;4979210;28;20778;-77
2021/11/16 06:50:44;;;;;;;19.60;9.90;;;7.10;91.90;;;;;;4977938;28;20426;-76
2021/11/16 06:53:11;;;;;;;21.47;11.27;;;7.10;91.90;;;;;;4974780;28;20404;-76
2021/11/16 06:55:37;;;;;;;17.00;9.00;;;7.10;92.00;;;;;;4973740;28;20562;-74
2021/11/16 06:58:04;;;;;;;20.27;10.63;;;7.10;92.00;;;;;;4975018;28;20932;-76
2021/11/16 07:00:32;;;;;;;19.10;10.30;;;7.10;92.00;;;;;;4977111;28;20786;-76
2021/11/16 07:02:59;;;;;;;20.93;10.40;;;7.10;92.10;;;;;;4976364;28;20782;-77
2021/11/16 07:05:28;;;;;;;21.37;11.97;;;7.10;92.00;;;;;;4976312;28;20578;-76
2021/11/16 07:07:59;;;;;;;22.37;11.93;;;7.10;92.00;;;;;;5009355;28;20502;-77
2021/11/16 07:10:28;;;;;;;23.03;12.00;;;7.10;92.10;;;;;;4974510;28;20431;-76
2021/11/16 07:13:06;;;;;;;24.83;12.60;;;7.10;92.10;;;;;;5005796;28;20422;-76
2021/11/16 07:15:34;;;;;;;19.53;10.37;;;7.10;92.10;;;;;;4976853;28;20474;-76
2021/11/16 07:18:02;;;;;;;21.60;10.90;;;7.10;92.10;;;;;;4976522;28;20407;-77
2021/11/16 07:20:28;;;;;;;22.50;12.57;;;7.10;92.10;;;;;;4976081;28;20996;-76
2021/11/16 07:22:54;;;;;;;23.73;11.40;;;7.10;92.20;;;;;;4973050;28;20718;-76
2021/11/16 07:25:20;;;;;;;65.50;29.47;;;7.10;92.20;;;;;;4977561;28;20491;-75
2021/11/16 07:27:54;;;;;;;25.10;12.43;;;7.10;92.60;;;;;;5013513;28;20172;-77
2021/11/16 07:30:32;;;;;;;24.30;12.70;;;7.10;92.20;;;;;;4979552;28;20422;-77
2021/11/16 07:33:14;;;;;;;25.60;11.83;;;7.10;92.20;;;;;;4981047;28;20470;-76
2021/11/16 07:35:43;;;;;;;23.87;11.20;;;7.10;92.10;;;;;;4979641;28;20530;-76
2021/11/16 07:38:15;;;;;;;25.23;12.90;;;7.10;92.20;;;;;;4984265;28;20715;-76
2021/11/16 07:41:04;;;;;;;25.83;14.60;;;7.10;92.20;;;;;;5004339;28;20411;-76
2021/11/16 07:43:29;;;;;;;28.03;13.77;;;7.10;92.30;;;;;;5001460;28;20434;-78
2021/11/16 07:45:56;;;;;;;27.00;12.60;;;7.10;92.30;;;;;;5006797;28;20449;-75
2021/11/16 07:48:27;;;;;;;24.70;12.30;;;7.20;92.40;;;;;;4998125;28;20183;-75
2021/11/16 07:50:57;;;;;;;27.90;13.43;;;7.20;92.50;;;;;;4996154;28;20489;-76
2021/11/16 07:53:31;;;;;;;24.57;12.67;;;7.20;92.60;;;;;;4998012;28;20425;-77
2021/11/16 07:55:59;;;;;;;19.60;12.03;;;7.20;92.60;;;;;;4998885;28;20453;-75
2021/11/16 07:58:35;;;;;;;22.90;11.90;;;7.20;92.60;;;;;;4998569;28;20426;-73
2021/11/16 08:01:05;;;;;;;20.00;12.30;;;7.20;92.80;;;;;;4997108;28;20460;-74
2021/11/16 08:03:40;;;;;;;24.70;11.20;;;7.20;92.80;;;;;;4996906;28;20427;-73
2021/11/16 08:06:21;;;;;;;20.67;11.63;;;7.20;92.80;;;;;;4998045;28;20519;-73
2021/11/16 08:13:53;;;;;;;23.77;11.97;;;7.10;92.80;;;;;;4999936;28;20433;-73
2021/11/16 08:16:19;;;;;;;22.43;12.10;;;7.20;92.90;;;;;;4985669;28;20561;-73
2021/11/16 08:18:47;;;;;;;22.17;12.23;;;7.10;92.90;;;;;;4989958;28;20172;-73
2021/11/16 08:21:16;;;;;;;21.30;11.27;;;7.10;93.10;;;;;;4990947;28;20422;-73
2021/11/16 08:23:54;;;;;;;24.50;11.10;;;7.10;93.30;;;;;;4990595;28;20420;-73
2021/11/16 08:26:22;;;;;;;25.77;12.07;;;7.10;93.40;;;;;;4990176;28;20806;-73
2021/11/16 08:28:49;;;;;;;21.37;12.07;;;7.10;93.90;;;;;;4994914;28;20451;-74
2021/11/16 08:31:16;;;;;;;26.97;13.47;;;7.10;93.50;;;;;;5002489;28;20457;-74
2021/11/16 08:33:43;;;;;;;27.33;14.40;;;7.10;93.70;;;;;;5009865;28;20415;-74
2021/11/16 08:36:09;;;;;;;20.13;12.50;;;7.10;93.70;;;;;;5003810;28;20487;-73
2021/11/16 08:38:36;;;;;;;29.90;14.50;;;7.20;93.80;;;;;;5011074;28;20426;-73
2021/11/16 08:41:03;;;;;;;32.50;16.30;;;7.20;93.70;;;;;;5005045;28;20407;-73
2021/11/16 08:43:38;;;;;;;27.57;15.10;;;7.20;93.70;;;;;;4995352;28;20498;-74
2021/11/16 08:46:10;;;;;;;25.67;13.30;;;7.20;93.70;;;;;;5025681;28;20458;-73
2021/11/16 08:48:41;;;;;;;27.43;12.73;;;7.30;93.60;;;;;;4983820;28;20435;-72
2021/11/16 08:51:10;;;;;;;27.17;13.07;;;7.30;93.60;;;;;;4990069;28;20454;-76
2021/11/16 08:53:39;;;;;;;29.43;15.23;;;7.30;93.60;;;;;;5005245;28;20864;-75
2021/11/16 08:56:17;;;;;;;31.53;14.77;;;7.30;93.50;;;;;;4995675;28;20466;-73
2021/11/16 08:58:43;;;;;;;24.57;11.93;;;7.40;93.50;;;;;;4995478;28;20418;-73
2021/11/16 09:01:09;;;;;;;27.07;14.57;;;7.40;93.50;;;;;;4995806;28;20510;-74
2021/11/16 09:03:41;;;;;;;26.47;13.77;;;7.40;93.50;;;;;;4996837;28;20422;-73
2021/11/16 09:06:22;;;;;;;26.40;13.63;;;7.40;93.50;;;;;;4991092;28;20991;-75
2021/11/16 09:09:17;;;;;;;28.50;13.13;;;7.50;93.40;;;;;;4994066;28;20459;-75
2021/11/16 09:12:02;;;;;;;27.27;13.17;;;7.40;93.10;;;;;;4985173;28;20422;-74
2021/11/16 09:14:30;;;;;;;29.57;17.27;;;7.30;93.20;;;;;;4994830;28;20426;-72
2021/11/16 09:16:57;;;;;;;25.50;12.80;;;7.30;93.60;;;;;;4988661;28;20484;-74
2021/11/16 09:19:29;;;;;;;30.87;13.80;;;7.30;93.80;;;;;;4976024;28;20976;-75
2021/11/16 09:21:56;;;;;;;23.20;12.53;;;7.30;93.80;;;;;;4990375;28;20568;-73
2021/11/16 09:24:31;;;;;;;24.97;12.33;;;7.40;93.90;;;;;;4986519;28;20430;-75
2021/11/16 09:27:45;;;;;;;31.57;13.50;;;7.40;93.40;;;;;;4998449;28;20433;-73
2021/11/16 09:29:48;;;;;;;24.83;12.87;;;7.40;93.80;;;;;;4983325;28;20987;-72
2021/11/16 09:32:15;;;;;;;22.07;11.30;;;7.40;93.70;;;;;;4988411;28;20489;-71
2021/11/16 09:34:43;;;;;;;26.27;13.70;;;7.40;93.80;;;;;;4988937;28;21037;-73
2021/11/16 09:37:21;;;;;;;24.53;12.93;;;7.50;93.80;;;;;;4975271;28;20486;-74
2021/11/16 09:39:53;;;;;;;23.03;12.10;;;7.50;93.60;;;;;;4983219;28;20806;-76
2021/11/16 09:42:36;;;;;;;26.87;13.40;;;7.50;93.50;;;;;;4994224;28;20414;-72
2021/11/16 09:45:12;;;;;;;23.20;12.80;;;7.50;93.50;;;;;;5004735;28;20443;-72
2021/11/16 09:47:41;;;;;;;24.20;12.10;;;7.50;93.60;;;;;;4977452;28;20522;-73
2021/11/16 09:50:14;;;;;;;21.10;12.03;;;7.50;93.50;;;;;;4975852;28;20443;-75
2021/11/16 09:52:46;;;;;;;19.00;11.73;;;7.50;93.20;;;;;;5017755;28;20427;-72
2021/11/16 09:55:22;;;;;;;24.40;12.63;;;7.40;93.40;;;;;;4974702;28;21024;-72
2021/11/16 09:58:02;;;;;;;21.57;10.30;;;7.40;93.70;;;;;;4994860;28;20805;-73
2021/11/16 10:00:31;;;;;;;20.80;12.00;;;7.30;93.60;;;;;;4991596;28;20438;-73
2021/11/16 10:02:59;;;;;;;27.70;13.23;;;7.30;93.80;;;;;;4995080;28;20423;-73
2021/11/16 10:05:26;;;;;;;25.03;12.73;;;7.30;94.10;;;;;;4973724;28;20458;-73
2021/11/16 10:07:56;;;;;;;24.37;12.60;;;7.30;94.20;;;;;;4987162;28;20435;-73
2021/11/16 10:10:24;;;;;;;22.03;11.47;;;7.40;94.20;;;;;;4976014;28;20442;-73
2021/11/16 10:12:53;;;;;;;30.93;18.23;;;7.40;94.20;;;;;;4974679;28;20491;-73
2021/11/16 10:15:22;;;;;;;25.70;13.97;;;7.50;94.00;;;;;;4975246;28;20466;-73
2021/11/16 10:17:50;;;;;;;42.20;24.23;;;7.50;94.00;;;;;;4976783;28;20515;-73
2021/11/16 10:20:19;;;;;;;25.50;12.90;;;7.50;93.90;;;;;;4974015;28;20422;-75
2021/11/16 10:22:50;;;;;;;21.90;11.70;;;7.40;93.70;;;;;;4985421;28;20424;-72
2021/11/16 10:25:23;;;;;;;27.23;13.43;;;7.40;93.90;;;;;;4992036;28;20446;-75
2021/11/16 10:27:50;;;;;;;29.73;14.53;;;7.30;94.00;;;;;;4975618;28;20522;-75
2021/11/16 10:30:29;;;;;;;22.93;12.70;;;7.30;94.30;;;;;;4973668;28;20428;-71
2021/11/16 10:33:12;;;;;;;32.10;14.17;;;7.20;94.40;;;;;;4973960;28;20739;-72
2021/11/16 10:35:50;;;;;;;24.30;13.10;;;7.30;94.70;;;;;;5005481;28;20466;-72
2021/11/16 10:38:24;;;;;;;26.37;12.37;;;7.30;94.80;;;;;;4974692;28;20415;-73
2021/11/16 10:40:55;;;;;;;26.20;13.07;;;7.30;94.60;;;;;;4975310;28;20510;-72
2021/11/16 10:43:21;;;;;;;25.17;12.07;;;7.30;94.50;;;;;;4978226;28;20415;-72
2021/11/16 10:45:51;;;;;;;21.23;11.27;;;7.20;94.20;;;;;;4984019;28;20455;-73
2021/11/16 10:48:20;;;;;;;24.20;11.53;;;7.20;94.20;;;;;;4977280;28;20432;-75
2021/11/16 10:50:49;;;;;;;27.67;12.50;;;7.20;94.10;;;;;;4974218;28;20462;-72
2021/11/16 10:53:19;;;;;;;24.53;11.93;;;7.20;94.20;;;;;;4982856;28;20895;-73
2021/11/16 10:55:53;;;;;;;28.20;13.53;;;7.10;94.30;;;;;;4993203;28;20944;-73
2021/11/16 10:58:35;;;;;;;24.87;12.23;;;7.10;94.40;;;;;;4992882;28;20823;-73
2021/11/16 11:01:07;;;;;;;32.33;22.20;;;7.10;94.40;;;;;;4991454;28;20633;-72
2021/11/16 11:03:45;;;;;;;41.07;25.30;;;7.10;94.50;;;;;;4982062;28;20482;-73
2021/11/16 11:06:15;;;;;;;25.67;12.07;;;7.20;94.70;;;;;;4980489;28;20455;-72
2021/11/16 11:08:48;;;;;;;18.90;10.93;;;7.20;94.50;;;;;;4976701;28;20450;-76
2021/11/16 11:11:31;;;;;;;18.43;9.73;;;7.20;94.40;;;;;;4979035;28;20815;-74
2021/11/16 11:13:58;;;;;;;20.60;11.20;;;7.20;94.20;;;;;;4979155;28;20746;-75
2021/11/16 11:16:25;;;;;;;20.90;10.37;;;7.10;94.20;;;;;;4977919;28;21104;-73
2021/11/16 11:18:52;;;;;;;20.67;12.10;;;7.10;94.30;;;;;;4977139;28;20412;-75
2021/11/16 11:21:37;;;;;;;24.20;10.90;;;7.10;94.40;;;;;;4977175;28;20408;-74
2021/11/16 11:24:09;;;;;;;23.90;10.30;;;7.10;94.60;;;;;;5001831;28;20791;-72
2021/11/16 11:26:38;;;;;;;24.77;12.23;;;7.10;94.80;;;;;;4978972;28;20466;-71
2021/11/16 11:29:20;;;;;;;24.27;11.17;;;7.20;94.90;;;;;;4990408;28;20418;-73
2021/11/16 11:31:51;;;;;;;78.30;47.57;;;7.20;95.00;;;;;;4996530;28;20964;-74
2021/11/16 11:34:18;;;;;;;25.50;12.53;;;7.20;95.00;;;;;;4997232;28;20522;-75
2021/11/16 11:36:44;;;;;;;17.93;9.67;;;7.20;94.90;;;;;;4992669;28;20971;-75
2021/11/16 11:39:20;;;;;;;20.33;11.90;;;7.20;94.80;;;;;;5013454;28;20421;-73
2021/11/16 11:41:48;;;;;;;17.20;10.00;;;7.20;94.90;;;;;;5002236;28;20421;-72
2021/11/16 11:44:19;;;;;;;17.93;10.03;;;7.20;95.00;;;;;;5003960;28;20407;-73
2021/11/16 11:46:46;;;;;;;25.20;11.57;;;7.30;94.90;;;;;;5004038;28;20463;-74
2021/11/16 11:49:12;;;;;;;17.67;10.20;;;7.30;94.90;;;;;;5035696;28;20789;-73
2021/11/16 11:51:38;;;;;;;18.30;10.83;;;7.30;94.90;;;;;;5004764;28;20418;-72
2021/11/16 11:54:03;;;;;;;20.10;9.80;;;7.30;95.10;;;;;;4986571;28;20594;-74
2021/11/16 11:56:30;;;;;;;15.10;9.30;;;7.30;95.10;;;;;;4991615;28;20467;-73
2021/11/16 11:58:58;;;;;;;18.63;9.70;;;7.20;95.00;;;;;;4979170;28;20160;-74
2021/11/16 12:01:28;;;;;;;22.27;9.37;;;7.20;95.00;;;;;;4979051;28;20452;-72
2021/11/16 12:03:56;;;;;;;17.67;10.00;;;7.20;95.00;;;;;;4998015;28;20439;-73
2021/11/16 12:06:24;;;;;;;19.07;10.40;;;7.20;95.30;;;;;;4998241;28;20426;-73
2021/11/16 12:08:51;;;;;;;18.87;9.60;;;7.20;95.50;;;;;;4988512;28;20439;-72
2021/11/16 12:11:19;;;;;;;26.43;14.27;;;7.20;95.60;;;;;;4996615;28;20430;-74
2021/11/16 12:13:46;;;;;;;18.00;10.73;;;7.30;95.70;;;;;;4990532;28;20434;-73
2021/11/16 12:16:27;;;;;;;20.87;11.57;;;7.30;95.70;;;;;;5003749;28;20447;-72
2021/11/16 12:19:08;;;;;;;24.33;12.43;;;7.40;95.60;;;;;;5001061;28;20410;-74
2021/11/16 12:21:35;;;;;;;23.33;11.60;;;7.40;95.60;;;;;;4985137;28;20434;-72
2021/11/16 12:24:10;;;;;;;18.93;12.40;;;7.40;95.60;;;;;;4983413;28;20942;-72
2021/11/16 12:26:40;;;;;;;13.90;8.43;;;7.40;95.60;;;;;;5032210;28;20714;-73
2021/11/16 12:29:22;;;;;;;16.30;7.87;;;7.50;95.60;;;;;;5032558;28;20491;-73
2021/11/16 12:31:50;;;;;;;13.33;8.23;;;7.50;95.50;;;;;;5017945;28;20434;-72
2021/11/16 12:34:39;;;;;;;14.50;8.30;;;7.50;95.50;;;;;;5018298;28;20418;-73
2021/11/16 12:37:10;;;;;;;10.33;6.80;;;7.50;95.50;;;;;;4977360;28;20459;-71
2021/11/16 12:39:59;;;;;;;14.60;6.33;;;7.50;95.50;;;;;;4978456;28;20498;-73
2021/11/16 12:42:25;;;;;;;12.83;6.50;;;7.50;95.10;;;;;;4987179;28;20434;-74
2021/11/16 12:45:00;;;;;;;13.90;8.50;;;7.50;95.20;;;;;;4985517;28;20511;-72
2021/11/16 12:47:28;;;;;;;11.97;5.67;;;7.40;95.30;;;;;;5013042;28;20168;-72
2021/11/16 12:50:10;;;;;;;12.20;6.97;;;7.50;95.50;;;;;;4984294;28;20496;-72
2021/11/16 12:52:48;;;;;;;12.17;7.10;;;7.50;95.30;;;;;;5006512;28;20462;-72
2021/11/16 12:55:24;;;;;;;16.77;7.50;;;7.50;94.80;;;;;;5007443;28;20438;-73
2021/11/16 12:57:50;;;;;;;13.77;7.20;;;7.40;95.00;;;;;;4981536;28;20443;-73
2021/11/16 13:00:17;;;;;;;16.23;8.60;;;7.50;95.20;;;;;;4987964;28;20438;-72
2021/11/16 13:02:52;;;;;;;13.13;7.30;;;7.50;95.20;;;;;;4994732;28;20411;-74